sensor_id;sensor_type;location;lat;lon;timestamp;pressure;altitude;pressure_sealevel;temperature;humidity
34925;BME280;21130;51.728;8.748;2023-06-19T00:02:23;99849.41;;;22.29;62.46
34925;BME280;21130;51.728;8.748;2023-06-19T00:04:49;99842.94;;;22.28;60.07
34925;BME280;21130;51.728;8.748;2023-06-19T00:07:16;99842.94;;;22.19;61.30
34925;BME280;21130;51.728;8.748;2023-06-19T00:09:42;99842.31;;;22.23;60.18
34925;BME280;21130;51.728;8.748;2023-06-19T00:12:09;99835.78;;;22.31;59.24
34925;BME280;21130;51.728;8.748;2023-06-19T00:14:36;99839.91;;;22.33;57.85
34925;BME280;21130;51.728;8.748;2023-06-19T00:17:03;99834.59;;;22.32;58.33
34925;BME280;21130;51.728;8.748;2023-06-19T00:19:33;99826.41;;;22.39;57.51
34925;BME280;21130;51.728;8.748;2023-06-19T00:22:01;99821.78;;;22.34;57.20
34925;BME280;21130;51.728;8.748;2023-06-19T00:24:28;99822.44;;;22.40;56.84
34925;BME280;21130;51.728;8.748;2023-06-19T00:26:54;99804.47;;;22.36;56.58
34925;BME280;21130;51.728;8.748;2023-06-19T00:29:21;99795.66;;;22.37;57.36
34925;BME280;21130;51.728;8.748;2023-06-19T00:31:47;99787.31;;;22.41;56.90
34925;BME280;21130;51.728;8.748;2023-06-19T00:34:14;99792.78;;;22.46;56.14
34925;BME280;21130;51.728;8.748;2023-06-19T00:36:42;99777.94;;;22.49;56.06
34925;BME280;21130;51.728;8.748;2023-06-19T00:39:08;99774.91;;;22.54;56.61
34925;BME280;21130;51.728;8.748;2023-06-19T00:41:36;99767.47;;;22.50;56.46
34925;BME280;21130;51.728;8.748;2023-06-19T00:44:02;99765.19;;;22.43;56.77
34925;BME280;21130;51.728;8.748;2023-06-19T00:46:30;99780.03;;;22.40;57.54
34925;BME280;21130;51.728;8.748;2023-06-19T00:48:57;99781.16;;;22.39;58.33
34925;BME280;21130;51.728;8.748;2023-06-19T00:51:23;99777.53;;;22.38;58.37
34925;BME280;21130;51.728;8.748;2023-06-19T00:53:52;99779.84;;;22.36;59.18
34925;BME280;21130;51.728;8.748;2023-06-19T00:56:18;99776.00;;;22.41;58.25
34925;BME280;21130;51.728;8.748;2023-06-19T00:58:45;99779.84;;;22.36;58.86
34925;BME280;21130;51.728;8.748;2023-06-19T01:01:12;99771.56;;;22.31;59.19
34925;BME280;21130;51.728;8.748;2023-06-19T01:03:38;99776.06;;;22.32;59.21
34925;BME280;21130;51.728;8.748;2023-06-19T01:06:10;99772.88;;;22.34;59.25
34925;BME280;21130;51.728;8.748;2023-06-19T01:08:49;99765.09;;;22.31;60.10
34925;BME280;21130;51.728;8.748;2023-06-19T01:11:21;99764.13;;;22.27;61.14
34925;BME280;21130;51.728;8.748;2023-06-19T01:13:53;99759.63;;;22.26;61.63
34925;BME280;21130;51.728;8.748;2023-06-19T01:16:23;99753.16;;;22.25;62.49
34925;BME280;21130;51.728;8.748;2023-06-19T01:18:50;99752.84;;;22.18;63.74
34925;BME280;21130;51.728;8.748;2023-06-19T01:21:18;99751.34;;;22.20;64.18
34925;BME280;21130;51.728;8.748;2023-06-19T01:23:47;99749.53;;;22.16;65.60
34925;BME280;21130;51.728;8.748;2023-06-19T01:26:15;99753.84;;;22.13;67.13
34925;BME280;21130;51.728;8.748;2023-06-19T01:28:42;99755.75;;;22.00;70.32
34925;BME280;21130;51.728;8.748;2023-06-19T01:31:12;99754.78;;;21.96;72.11
34925;BME280;21130;51.728;8.748;2023-06-19T01:33:40;99751.09;;;22.05;71.90
34925;BME280;21130;51.728;8.748;2023-06-19T01:36:09;99753.63;;;21.97;73.68
34925;BME280;21130;51.728;8.748;2023-06-19T01:38:37;99745.13;;;21.97;74.28
34925;BME280;21130;51.728;8.748;2023-06-19T01:41:06;99744.97;;;21.94;74.71
34925;BME280;21130;51.728;8.748;2023-06-19T01:43:34;99746.34;;;21.88;75.36
34925;BME280;21130;51.728;8.748;2023-06-19T01:46:01;99752.50;;;21.90;72.95
34925;BME280;21130;51.728;8.748;2023-06-19T01:48:28;99755.31;;;21.90;73.36
34925;BME280;21130;51.728;8.748;2023-06-19T01:50:55;99757.16;;;21.86;73.87
34925;BME280;21130;51.728;8.748;2023-06-19T01:53:21;99756.16;;;21.82;74.06
34925;BME280;21130;51.728;8.748;2023-06-19T01:55:48;99751.69;;;21.81;74.49
34925;BME280;21130;51.728;8.748;2023-06-19T01:58:16;99759.19;;;21.76;73.90
34925;BME280;21130;51.728;8.748;2023-06-19T02:00:42;99760.72;;;21.65;76.06
34925;BME280;21130;51.728;8.748;2023-06-19T02:03:09;99756.59;;;21.63;78.37
34925;BME280;21130;51.728;8.748;2023-06-19T02:05:36;99747.28;;;21.62;77.13
34925;BME280;21130;51.728;8.748;2023-06-19T02:08:05;99740.97;;;21.56;79.44
34925;BME280;21130;51.728;8.748;2023-06-19T02:10:31;99740.19;;;21.47;87.43
34925;BME280;21130;51.728;8.748;2023-06-19T02:12:58;99733.88;;;21.42;90.44
34925;BME280;21130;51.728;8.748;2023-06-19T02:15:25;99734.56;;;21.39;91.07
34925;BME280;21130;51.728;8.748;2023-06-19T02:17:53;99736.38;;;21.26;91.28
34925;BME280;21130;51.728;8.748;2023-06-19T02:20:20;99733.75;;;21.29;88.67
34925;BME280;21130;51.728;8.748;2023-06-19T02:22:47;99725.28;;;21.29;87.63
34925;BME280;21130;51.728;8.748;2023-06-19T02:25:13;99733.75;;;21.21;92.45
34925;BME280;21130;51.728;8.748;2023-06-19T02:27:39;99722.13;;;21.13;92.55
34925;BME280;21130;51.728;8.748;2023-06-19T02:30:07;99719.66;;;21.12;92.13
34925;BME280;21130;51.728;8.748;2023-06-19T02:32:35;99724.63;;;21.06;93.78
34925;BME280;21130;51.728;8.748;2023-06-19T02:35:02;99723.66;;;21.02;94.32
34925;BME280;21130;51.728;8.748;2023-06-19T02:37:28;99719.19;;;20.92;94.59
34925;BME280;21130;51.728;8.748;2023-06-19T02:39:55;99713.38;;;20.89;95.28
34925;BME280;21130;51.728;8.748;2023-06-19T02:42:21;99732.31;;;20.80;96.96
34925;BME280;21130;51.728;8.748;2023-06-19T02:44:48;99732.63;;;20.78;98.38
34925;BME280;21130;51.728;8.748;2023-06-19T02:47:14;99724.34;;;20.82;94.61
34925;BME280;21130;51.728;8.748;2023-06-19T02:49:42;99725.00;;;20.87;93.80
34925;BME280;21130;51.728;8.748;2023-06-19T02:52:09;99727.63;;;21.01;88.96
34925;BME280;21130;51.728;8.748;2023-06-19T02:54:35;99733.09;;;21.06;87.20
34925;BME280;21130;51.728;8.748;2023-06-19T02:57:02;99732.41;;;21.18;86.07
34925;BME280;21130;51.728;8.748;2023-06-19T02:59:29;99738.56;;;21.20;84.68
34925;BME280;21130;51.728;8.748;2023-06-19T03:01:55;99729.91;;;21.25;83.90
34925;BME280;21130;51.728;8.748;2023-06-19T03:04:22;99740.53;;;21.28;84.20
34925;BME280;21130;51.728;8.748;2023-06-19T03:06:50;99729.56;;;21.35;81.97
34925;BME280;21130;51.728;8.748;2023-06-19T03:09:16;99736.06;;;21.45;81.72
34925;BME280;21130;51.728;8.748;2023-06-19T03:11:43;99737.06;;;21.40;80.80
34925;BME280;21130;51.728;8.748;2023-06-19T03:14:09;99736.69;;;21.42;79.78
34925;BME280;21130;51.728;8.748;2023-06-19T03:16:36;99744.03;;;21.43;81.73
34925;BME280;21130;51.728;8.748;2023-06-19T03:19:02;99741.50;;;21.50;80.18
34925;BME280;21130;51.728;8.748;2023-06-19T03:21:29;99741.34;;;21.46;81.06
34925;BME280;21130;51.728;8.748;2023-06-19T03:23:57;99742.50;;;21.45;80.72
34925;BME280;21130;51.728;8.748;2023-06-19T03:26:24;99750.94;;;21.54;79.12
34925;BME280;21130;51.728;8.748;2023-06-19T03:28:51;99746.28;;;21.58;78.82
34925;BME280;21130;51.728;8.748;2023-06-19T03:31:17;99738.31;;;21.60;78.01
34925;BME280;21130;51.728;8.748;2023-06-19T03:33:44;99746.44;;;21.62;77.74
34925;BME280;21130;51.728;8.748;2023-06-19T03:36:10;99744.47;;;21.62;78.66
34925;BME280;21130;51.728;8.748;2023-06-19T03:38:37;99753.13;;;21.57;80.05
34925;BME280;21130;51.728;8.748;2023-06-19T03:41:05;99760.72;;;21.56;79.69
34925;BME280;21130;51.728;8.748;2023-06-19T03:43:31;99756.03;;;21.69;77.80
34925;BME280;21130;51.728;8.748;2023-06-19T03:45:57;99762.88;;;21.68;78.04
34925;BME280;21130;51.728;8.748;2023-06-19T03:48:24;99764.19;;;21.71;78.72
34925;BME280;21130;51.728;8.748;2023-06-19T03:50:51;99770.03;;;21.66;87.64
34925;BME280;21130;51.728;8.748;2023-06-19T03:53:17;99789.81;;;21.57;92.65
34925;BME280;21130;51.728;8.748;2023-06-19T03:55:44;99784.22;;;21.40;100.00
34925;BME280;21130;51.728;8.748;2023-06-19T03:58:12;99780.72;;;21.43;100.00
34925;BME280;21130;51.728;8.748;2023-06-19T04:00:39;99788.34;;;21.16;100.00
34925;BME280;21130;51.728;8.748;2023-06-19T04:03:06;99783.72;;;21.03;100.00
34925;BME280;21130;51.728;8.748;2023-06-19T04:05:35;99784.38;;;20.91;100.00
34925;BME280;21130;51.728;8.748;2023-06-19T04:08:10;99791.53;;;20.80;100.00
34925;BME280;21130;51.728;8.748;2023-06-19T04:10:55;99795.00;;;20.68;100.00
34925;BME280;21130;51.728;8.748;2023-06-19T04:13:23;99783.84;;;20.54;100.00
34925;BME280;21130;51.728;8.748;2023-06-19T04:15:51;99787.09;;;20.39;100.00
34925;BME280;21130;51.728;8.748;2023-06-19T04:18:17;99788.91;;;20.26;100.00
34925;BME280;21130;51.728;8.748;2023-06-19T04:20:44;99798.22;;;20.26;100.00
34925;BME280;21130;51.728;8.748;2023-06-19T04:23:10;99795.50;;;20.13;100.00
34925;BME280;21130;51.728;8.748;2023-06-19T04:25:37;99800.13;;;20.08;100.00
34925;BME280;21130;51.728;8.748;2023-06-19T04:28:03;99801.94;;;20.04;100.00
34925;BME280;21130;51.728;8.748;2023-06-19T04:30:31;99805.41;;;20.01;100.00
34925;BME280;21130;51.728;8.748;2023-06-19T04:32:58;99804.56;;;20.01;100.00
34925;BME280;21130;51.728;8.748;2023-06-19T04:35:25;99810.41;;;20.04;100.00
34925;BME280;21130;51.728;8.748;2023-06-19T04:37:52;99799.13;;;20.04;100.00
34925;BME280;21130;51.728;8.748;2023-06-19T04:40:19;99803.78;;;20.09;100.00
34925;BME280;21130;51.728;8.748;2023-06-19T04:42:45;99802.63;;;20.19;100.00
34925;BME280;21130;51.728;8.748;2023-06-19T04:45:12;99815.75;;;20.23;100.00
34925;BME280;21130;51.728;8.748;2023-06-19T04:47:39;99803.34;;;20.33;100.00
34925;BME280;21130;51.728;8.748;2023-06-19T04:50:07;99818.97;;;20.39;100.00
34925;BME280;21130;51.728;8.748;2023-06-19T04:52:34;99817.13;;;20.43;100.00
34925;BME280;21130;51.728;8.748;2023-06-19T04:55:00;99821.13;;;20.51;100.00
34925;BME280;21130;51.728;8.748;2023-06-19T04:57:27;99823.34;;;20.63;100.00
34925;BME280;21130;51.728;8.748;2023-06-19T04:59:53;99825.00;;;20.64;100.00
34925;BME280;21130;51.728;8.748;2023-06-19T05:02:20;99828.31;;;20.66;100.00
34925;BME280;21130;51.728;8.748;2023-06-19T05:04:50;99822.38;;;20.67;100.00
34925;BME280;21130;51.728;8.748;2023-06-19T05:07:17;99824.19;;;20.72;100.00
34925;BME280;21130;51.728;8.748;2023-06-19T05:09:43;99834.81;;;20.75;100.00
34925;BME280;21130;51.728;8.748;2023-06-19T05:12:10;99832.00;;;20.75;100.00
34925;BME280;21130;51.728;8.748;2023-06-19T05:14:37;99834.34;;;20.82;100.00
34925;BME280;21130;51.728;8.748;2023-06-19T05:17:04;99845.78;;;20.85;100.00
34925;BME280;21130;51.728;8.748;2023-06-19T05:19:31;99846.81;;;21.07;100.00
34925;BME280;21130;51.728;8.748;2023-06-19T05:21:58;99850.13;;;21.18;100.00
34925;BME280;21130;51.728;8.748;2023-06-19T05:24:25;99848.94;;;21.36;100.00
34925;BME280;21130;51.728;8.748;2023-06-19T05:26:51;99859.06;;;21.63;100.00
34925;BME280;21130;51.728;8.748;2023-06-19T05:29:18;99852.38;;;21.76;100.00
34925;BME280;21130;51.728;8.748;2023-06-19T05:31:44;99860.63;;;21.99;100.00
34925;BME280;21130;51.728;8.748;2023-06-19T05:34:11;99856.41;;;22.14;100.00
34925;BME280;21130;51.728;8.748;2023-06-19T05:36:37;99863.53;;;22.29;100.00
34925;BME280;21130;51.728;8.748;2023-06-19T05:39:05;99876.16;;;22.40;100.00
34925;BME280;21130;51.728;8.748;2023-06-19T05:41:31;99869.59;;;22.48;100.00
34925;BME280;21130;51.728;8.748;2023-06-19T05:43:58;99868.69;;;22.65;100.00
34925;BME280;21130;51.728;8.748;2023-06-19T05:46:25;99869.66;;;22.69;100.00
34925;BME280;21130;51.728;8.748;2023-06-19T05:48:51;99873.59;;;22.77;100.00
34925;BME280;21130;51.728;8.748;2023-06-19T05:51:19;99875.69;;;22.89;100.00
34925;BME280;21130;51.728;8.748;2023-06-19T05:53:46;99884.72;;;22.82;100.00
34925;BME280;21130;51.728;8.748;2023-06-19T05:56:15;99899.16;;;22.89;100.00
34925;BME280;21130;51.728;8.748;2023-06-19T05:58:42;99887.00;;;22.89;100.00
34925;BME280;21130;51.728;8.748;2023-06-19T06:01:09;99898.63;;;22.96;100.00
34925;BME280;21130;51.728;8.748;2023-06-19T06:03:35;99889.50;;;22.90;100.00
34925;BME280;21130;51.728;8.748;2023-06-19T06:06:02;99896.44;;;23.01;100.00
34925;BME280;21130;51.728;8.748;2023-06-19T06:08:28;99894.50;;;23.14;100.00
34925;BME280;21130;51.728;8.748;2023-06-19T06:10:55;99899.09;;;23.27;100.00
34925;BME280;21130;51.728;8.748;2023-06-19T06:13:23;99909.03;;;23.34;100.00
34925;BME280;21130;51.728;8.748;2023-06-19T06:15:50;99909.78;;;23.43;100.00
34925;BME280;21130;51.728;8.748;2023-06-19T06:18:16;99912.59;;;23.64;100.00
34925;BME280;21130;51.728;8.748;2023-06-19T06:20:43;99912.94;;;23.62;100.00
34925;BME280;21130;51.728;8.748;2023-06-19T06:23:09;99904.25;;;23.46;100.00
34925;BME280;21130;51.728;8.748;2023-06-19T06:25:36;99912.75;;;23.46;100.00
34925;BME280;21130;51.728;8.748;2023-06-19T06:28:03;99917.59;;;23.46;100.00
34925;BME280;21130;51.728;8.748;2023-06-19T06:30:34;99917.66;;;23.58;100.00
34925;BME280;21130;51.728;8.748;2023-06-19T06:33:00;99926.38;;;23.53;100.00
34925;BME280;21130;51.728;8.748;2023-06-19T06:35:26;99923.16;;;23.55;100.00
34925;BME280;21130;51.728;8.748;2023-06-19T06:37:53;99931.31;;;23.56;100.00
34925;BME280;21130;51.728;8.748;2023-06-19T06:40:22;99928.16;;;23.58;100.00
34925;BME280;21130;51.728;8.748;2023-06-19T06:42:48;99928.41;;;23.65;100.00
34925;BME280;21130;51.728;8.748;2023-06-19T06:45:15;99940.22;;;23.67;100.00
34925;BME280;21130;51.728;8.748;2023-06-19T06:47:43;99945.97;;;23.58;100.00
34925;BME280;21130;51.728;8.748;2023-06-19T06:50:09;99940.03;;;23.51;100.00
34925;BME280;21130;51.728;8.748;2023-06-19T06:52:36;99943.00;;;23.55;100.00
34925;BME280;21130;51.728;8.748;2023-06-19T06:55:04;99942.84;;;23.72;100.00
34925;BME280;21130;51.728;8.748;2023-06-19T06:57:31;99943.09;;;23.88;100.00
34925;BME280;21130;51.728;8.748;2023-06-19T06:59:57;99929.94;;;23.83;100.00
34925;BME280;21130;51.728;8.748;2023-06-19T07:02:23;99938.28;;;24.01;100.00
34925;BME280;21130;51.728;8.748;2023-06-19T07:04:51;99933.38;;;24.22;100.00
34925;BME280;21130;51.728;8.748;2023-06-19T07:07:18;99945.44;;;24.31;100.00
34925;BME280;21130;51.728;8.748;2023-06-19T07:09:44;99944.84;;;24.26;100.00
34925;BME280;21130;51.728;8.748;2023-06-19T07:12:11;99951.38;;;24.39;100.00
34925;BME280;21130;51.728;8.748;2023-06-19T07:17:44;99954.38;;;24.09;100.00
34925;BME280;21130;51.728;8.748;2023-06-19T07:20:13;99951.13;;;24.31;100.00
34925;BME280;21130;51.728;8.748;2023-06-19T07:22:42;99960.22;;;24.37;100.00
34925;BME280;21130;51.728;8.748;2023-06-19T07:25:10;99957.81;;;24.60;100.00
34925;BME280;21130;51.728;8.748;2023-06-19T07:27:37;99962.50;;;24.44;100.00
34925;BME280;21130;51.728;8.748;2023-06-19T07:30:04;99973.53;;;24.57;100.00
34925;BME280;21130;51.728;8.748;2023-06-19T07:32:31;99966.31;;;24.60;100.00
34925;BME280;21130;51.728;8.748;2023-06-19T07:34:58;99986.88;;;24.57;100.00
34925;BME280;21130;51.728;8.748;2023-06-19T07:37:25;99974.22;;;24.09;100.00
34925;BME280;21130;51.728;8.748;2023-06-19T07:39:52;99976.00;;;23.80;100.00
34925;BME280;21130;51.728;8.748;2023-06-19T07:42:19;99975.19;;;23.71;100.00
34925;BME280;21130;51.728;8.748;2023-06-19T07:44:46;99991.59;;;23.65;100.00
34925;BME280;21130;51.728;8.748;2023-06-19T07:47:15;99986.34;;;23.76;100.00
34925;BME280;21130;51.728;8.748;2023-06-19T07:49:43;99990.13;;;23.59;100.00
34925;BME280;21130;51.728;8.748;2023-06-19T07:52:10;99985.72;;;23.70;100.00
34925;BME280;21130;51.728;8.748;2023-06-19T07:54:47;99979.81;;;23.55;100.00
34925;BME280;21130;51.728;8.748;2023-06-19T07:57:14;99987.94;;;23.86;100.00
34925;BME280;21130;51.728;8.748;2023-06-19T07:59:40;99986.53;;;24.13;100.00
34925;BME280;21130;51.728;8.748;2023-06-19T08:02:07;99978.59;;;24.52;100.00
34925;BME280;21130;51.728;8.748;2023-06-19T08:04:33;99986.22;;;24.85;100.00
34925;BME280;21130;51.728;8.748;2023-06-19T08:07:00;99986.19;;;24.72;100.00
34925;BME280;21130;51.728;8.748;2023-06-19T08:09:26;99976.63;;;24.77;100.00
34925;BME280;21130;51.728;8.748;2023-06-19T08:11:54;99987.41;;;24.84;100.00
34925;BME280;21130;51.728;8.748;2023-06-19T08:14:21;99975.31;;;24.62;100.00
34925;BME280;21130;51.728;8.748;2023-06-19T08:16:48;99988.78;;;24.53;100.00
34925;BME280;21130;51.728;8.748;2023-06-19T08:19:15;99991.28;;;24.79;100.00
34925;BME280;21130;51.728;8.748;2023-06-19T08:21:41;99983.03;;;24.98;100.00
34925;BME280;21130;51.728;8.748;2023-06-19T08:24:08;99981.28;;;25.31;100.00
34925;BME280;21130;51.728;8.748;2023-06-19T08:26:34;99984.34;;;25.13;100.00
34925;BME280;21130;51.728;8.748;2023-06-19T08:29:02;99995.09;;;24.71;100.00
34925;BME280;21130;51.728;8.748;2023-06-19T08:31:29;99987.72;;;24.70;100.00
34925;BME280;21130;51.728;8.748;2023-06-19T08:33:56;99999.78;;;24.67;100.00
34925;BME280;21130;51.728;8.748;2023-06-19T08:36:23;100003.78;;;24.53;100.00
34925;BME280;21130;51.728;8.748;2023-06-19T08:38:49;100006.56;;;24.99;100.00
34925;BME280;21130;51.728;8.748;2023-06-19T08:41:18;100007.19;;;25.17;100.00
34925;BME280;21130;51.728;8.748;2023-06-19T08:43:46;100005.97;;;25.30;100.00
34925;BME280;21130;51.728;8.748;2023-06-19T08:46:16;100009.50;;;24.66;100.00
34925;BME280;21130;51.728;8.748;2023-06-19T08:48:44;100013.44;;;24.86;100.00
34925;BME280;21130;51.728;8.748;2023-06-19T08:51:11;100017.91;;;24.99;100.00
34925;BME280;21130;51.728;8.748;2023-06-19T08:53:44;100014.75;;;25.00;100.00
34925;BME280;21130;51.728;8.748;2023-06-19T08:56:12;100026.34;;;25.44;100.00
34925;BME280;21130;51.728;8.748;2023-06-19T08:58:39;100020.56;;;25.16;100.00
34925;BME280;21130;51.728;8.748;2023-06-19T09:01:06;100023.38;;;25.53;100.00
34925;BME280;21130;51.728;8.748;2023-06-19T09:03:34;100028.13;;;25.37;98.53
34925;BME280;21130;51.728;8.748;2023-06-19T09:06:03;100027.38;;;25.15;98.94
34925;BME280;21130;51.728;8.748;2023-06-19T09:08:29;100024.22;;;25.17;98.40
34925;BME280;21130;51.728;8.748;2023-06-19T09:10:57;100026.72;;;25.31;97.32
34925;BME280;21130;51.728;8.748;2023-06-19T09:13:23;100024.06;;;24.89;98.25
34925;BME280;21130;51.728;8.748;2023-06-19T09:15:57;100033.13;;;24.70;95.61
34925;BME280;21130;51.728;8.748;2023-06-19T09:18:25;100019.59;;;25.25;91.19
34925;BME280;21130;51.728;8.748;2023-06-19T09:20:54;100037.22;;;25.06;95.71
34925;BME280;21130;51.728;8.748;2023-06-19T09:23:20;100035.94;;;25.28;91.21
34925;BME280;21130;51.728;8.748;2023-06-19T09:25:47;100037.50;;;25.90;91.88
34925;BME280;21130;51.728;8.748;2023-06-19T09:28:18;100039.66;;;26.21;85.36
34925;BME280;21130;51.728;8.748;2023-06-19T09:30:52;100042.34;;;26.58;76.61
34925;BME280;21130;51.728;8.748;2023-06-19T09:33:18;100043.00;;;26.83;77.13
34925;BME280;21130;51.728;8.748;2023-06-19T09:35:45;100042.44;;;26.05;85.94
34925;BME280;21130;51.728;8.748;2023-06-19T09:38:13;100043.91;;;25.75;91.04
34925;BME280;21130;51.728;8.748;2023-06-19T09:40:42;100039.53;;;25.77;85.69
34925;BME280;21130;51.728;8.748;2023-06-19T09:43:09;100034.66;;;25.90;84.42
34925;BME280;21130;51.728;8.748;2023-06-19T09:45:35;100038.38;;;25.66;82.31
34925;BME280;21130;51.728;8.748;2023-06-19T09:48:02;100040.50;;;25.69;84.80
34925;BME280;21130;51.728;8.748;2023-06-19T09:50:30;100047.25;;;25.15;89.44
34925;BME280;21130;51.728;8.748;2023-06-19T09:52:57;100049.66;;;25.13;92.49
34925;BME280;21130;51.728;8.748;2023-06-19T09:55:26;100053.16;;;25.10;90.36
34925;BME280;21130;51.728;8.748;2023-06-19T09:57:56;100048.16;;;24.70;95.44
34925;BME280;21130;51.728;8.748;2023-06-19T10:00:23;100048.91;;;25.04;93.79
34925;BME280;21130;51.728;8.748;2023-06-19T10:02:56;100045.41;;;25.19;90.88
34925;BME280;21130;51.728;8.748;2023-06-19T10:05:28;100048.69;;;25.58;88.89
34925;BME280;21130;51.728;8.748;2023-06-19T10:08:26;100060.72;;;25.80;88.12
34925;BME280;21130;51.728;8.748;2023-06-19T10:10:54;100059.75;;;26.00;85.20
34925;BME280;21130;51.728;8.748;2023-06-19T10:13:21;100050.69;;;25.70;85.30
34925;BME280;21130;51.728;8.748;2023-06-19T10:15:47;100053.66;;;25.74;91.21
34925;BME280;21130;51.728;8.748;2023-06-19T10:18:15;100048.59;;;26.07;80.60
34925;BME280;21130;51.728;8.748;2023-06-19T10:20:42;100050.13;;;25.40;84.78
34925;BME280;21130;51.728;8.748;2023-06-19T10:23:11;100057.25;;;25.46;82.42
34925;BME280;21130;51.728;8.748;2023-06-19T10:25:39;100055.50;;;25.82;85.02
34925;BME280;21130;51.728;8.748;2023-06-19T10:28:17;100060.47;;;25.97;82.33
34925;BME280;21130;51.728;8.748;2023-06-19T10:30:44;100051.25;;;26.28;83.19
34925;BME280;21130;51.728;8.748;2023-06-19T10:33:11;100057.66;;;26.25;77.93
34925;BME280;21130;51.728;8.748;2023-06-19T10:35:38;100056.94;;;26.28;77.88
34925;BME280;21130;51.728;8.748;2023-06-19T10:38:06;100063.53;;;26.89;72.82
34925;BME280;21130;51.728;8.748;2023-06-19T10:40:32;100063.66;;;27.24;69.38
34925;BME280;21130;51.728;8.748;2023-06-19T10:42:58;100057.19;;;27.27;64.97
34925;BME280;21130;51.728;8.748;2023-06-19T10:45:26;100055.97;;;27.12;66.29
34925;BME280;21130;51.728;8.748;2023-06-19T10:47:54;100055.00;;;26.61;68.56
34925;BME280;21130;51.728;8.748;2023-06-19T10:50:22;100054.66;;;26.34;70.18
34925;BME280;21130;51.728;8.748;2023-06-19T10:52:52;100058.50;;;26.26;72.98
34925;BME280;21130;51.728;8.748;2023-06-19T10:55:20;100064.34;;;26.05;76.75
34925;BME280;21130;51.728;8.748;2023-06-19T10:57:48;100070.78;;;26.58;76.87
34925;BME280;21130;51.728;8.748;2023-06-19T11:00:23;100066.31;;;26.73;72.44
34925;BME280;21130;51.728;8.748;2023-06-19T11:02:51;100061.97;;;27.39;67.89
34925;BME280;21130;51.728;8.748;2023-06-19T11:05:19;100063.44;;;27.49;67.52
34925;BME280;21130;51.728;8.748;2023-06-19T11:07:50;100058.69;;;27.21;69.61
34925;BME280;21130;51.728;8.748;2023-06-19T11:10:19;100061.13;;;27.07;69.60
34925;BME280;21130;51.728;8.748;2023-06-19T11:12:46;100062.13;;;27.14;75.60
34925;BME280;21130;51.728;8.748;2023-06-19T11:15:12;100061.44;;;27.69;71.10
34925;BME280;21130;51.728;8.748;2023-06-19T11:17:39;100064.91;;;27.43;66.22
34925;BME280;21130;51.728;8.748;2023-06-19T11:20:11;100059.13;;;27.39;66.31
34925;BME280;21130;51.728;8.748;2023-06-19T11:22:41;100059.88;;;27.20;65.07
34925;BME280;21130;51.728;8.748;2023-06-19T11:25:09;100052.22;;;26.92;67.87
34925;BME280;21130;51.728;8.748;2023-06-19T11:27:39;100057.91;;;26.48;75.26
34925;BME280;21130;51.728;8.748;2023-06-19T11:30:06;100057.56;;;26.22;75.16
34925;BME280;21130;51.728;8.748;2023-06-19T11:32:36;100060.69;;;26.61;74.60
34925;BME280;21130;51.728;8.748;2023-06-19T11:35:08;100066.59;;;26.12;75.60
34925;BME280;21130;51.728;8.748;2023-06-19T11:37:36;100067.69;;;26.35;77.83
34925;BME280;21130;51.728;8.748;2023-06-19T11:40:03;100062.88;;;26.51;77.08
34925;BME280;21130;51.728;8.748;2023-06-19T11:42:52;100064.78;;;26.19;81.90
34925;BME280;21130;51.728;8.748;2023-06-19T11:45:20;100068.59;;;26.23;76.02
34925;BME280;21130;51.728;8.748;2023-06-19T11:47:47;100060.09;;;26.83;74.11
34925;BME280;21130;51.728;8.748;2023-06-19T11:50:15;100057.84;;;27.21;72.08
34925;BME280;21130;51.728;8.748;2023-06-19T11:52:43;100065.25;;;27.57;68.80
34925;BME280;21130;51.728;8.748;2023-06-19T11:55:11;100054.09;;;28.42;60.84
34925;BME280;21130;51.728;8.748;2023-06-19T11:57:38;100055.44;;;29.10;57.42
34925;BME280;21130;51.728;8.748;2023-06-19T12:00:14;100059.28;;;28.17;61.09
34925;BME280;21130;51.728;8.748;2023-06-19T12:02:41;100068.75;;;28.21;61.18
34925;BME280;21130;51.728;8.748;2023-06-19T12:05:08;100064.63;;;28.38;60.50
34925;BME280;21130;51.728;8.748;2023-06-19T12:07:36;100056.59;;;28.86;58.29
34925;BME280;21130;51.728;8.748;2023-06-19T12:10:04;100044.69;;;28.61;58.44
34925;BME280;21130;51.728;8.748;2023-06-19T12:12:38;100061.00;;;28.41;60.84
34925;BME280;21130;51.728;8.748;2023-06-19T12:15:06;100051.94;;;27.80;62.23
34925;BME280;21130;51.728;8.748;2023-06-19T12:17:32;100057.94;;;27.75;62.45
34925;BME280;21130;51.728;8.748;2023-06-19T12:20:00;100052.81;;;27.65;65.38
34925;BME280;21130;51.728;8.748;2023-06-19T12:22:27;100049.66;;;27.70;61.55
34925;BME280;21130;51.728;8.748;2023-06-19T12:24:53;100050.63;;;27.58;65.42
34925;BME280;21130;51.728;8.748;2023-06-19T12:27:22;100044.31;;;27.33;65.89
34925;BME280;21130;51.728;8.748;2023-06-19T12:29:48;100045.00;;;27.62;65.56
34925;BME280;21130;51.728;8.748;2023-06-19T12:32:15;100040.44;;;28.12;62.88
34925;BME280;21130;51.728;8.748;2023-06-19T12:34:41;100042.88;;;28.49;59.48
34925;BME280;21130;51.728;8.748;2023-06-19T12:37:12;100030.06;;;28.62;58.47
34925;BME280;21130;51.728;8.748;2023-06-19T12:39:38;100043.44;;;28.58;60.46
34925;BME280;21130;51.728;8.748;2023-06-19T12:42:06;100040.56;;;28.39;58.39
34925;BME280;21130;51.728;8.748;2023-06-19T12:44:34;100044.19;;;28.55;58.05
34925;BME280;21130;51.728;8.748;2023-06-19T12:47:00;100028.28;;;28.54;57.49
34925;BME280;21130;51.728;8.748;2023-06-19T12:49:28;100028.41;;;28.42;58.21
34925;BME280;21130;51.728;8.748;2023-06-19T12:51:54;100027.72;;;28.68;55.14
34925;BME280;21130;51.728;8.748;2023-06-19T12:54:22;100044.19;;;27.97;55.98
34925;BME280;21130;51.728;8.748;2023-06-19T12:56:48;100043.56;;;27.88;56.43
34925;BME280;21130;51.728;8.748;2023-06-19T12:59:15;100040.94;;;27.98;60.29